Andalusia, Alabama
Current Conditions -  °F | °C
As of 12:56 PM on Sunday 23 Nov 2014 (Local Time) from K79J Reporting Station
Light Rain Light Rain  
Wind Chill: 69°   Ceiling: 6000
Heat Index: 69°   Visibility: 10mi
Dew Point: 61°   Wind: 16mph
Humidity: 75%   Direction: 270°W
Pressure: 29.73"   Gusts: 29mph
Location:  31.32°N, 86.49°W
Report Text: K79J 231856Z AUTO 27014G25KT 240V310 10SM -RA SCT039 OVC060 21/16 A2973 RMK AO2 PK WND 26038/1820 TSE03 SLP065 P0048 T02060161
Loading
Personal Weather Stations






























Interactive Weather Map New forecast layout! Learn more

10-Day Weather Forecast

Advertisements
Track Severe Weather on mobile